createdAt,value
2023-01-10T00:01:07.044Z,6.80
2023-01-10T00:03:38.721Z,9.15
2023-01-10T00:06:10.399Z,8.77
2023-01-10T00:08:46.492Z,11.02
2023-01-10T00:14:12.206Z,6.70
2023-01-10T00:16:43.925Z,8.18
2023-01-10T00:19:18.462Z,5.88
2023-01-10T00:21:51.243Z,8.68
2023-01-10T00:24:23.745Z,7.15
2023-01-10T00:26:55.445Z,7.45
2023-01-10T00:29:29.173Z,7.18
2023-01-10T00:32:01.195Z,6.88
2023-01-10T00:34:33.181Z,6.50
2023-01-10T00:37:04.909Z,5.88
2023-01-10T00:39:36.658Z,7.22
2023-01-10T00:42:28.955Z,11.63
2023-01-10T00:45:00.701Z,5.28
2023-01-10T00:47:32.416Z,5.80
2023-01-10T00:50:11.869Z,7.93
2023-01-10T00:52:46.165Z,6.80
2023-01-10T00:55:20.702Z,7.75
2023-01-10T00:57:55.134Z,7.45
2023-01-10T01:02:58.670Z,6.00
2023-01-10T01:05:30.478Z,5.90
2023-01-10T01:08:02.195Z,7.03
2023-01-10T01:10:33.923Z,6.90
2023-01-10T01:13:17.847Z,4.85
2023-01-10T01:15:49.967Z,7.10
2023-01-10T01:18:21.970Z,5.63
2023-01-10T01:21:02.353Z,4.95
2023-01-10T01:23:34.939Z,5.90
2023-01-10T01:26:06.949Z,6.57
2023-01-10T01:28:38.719Z,5.85
2023-01-10T01:31:10.852Z,4.13
2023-01-10T01:33:42.789Z,5.00
2023-01-10T01:36:14.552Z,3.92
2023-01-10T01:38:46.284Z,6.13
2023-01-10T01:41:36.287Z,4.80
2023-01-10T01:44:16.707Z,4.00
2023-01-10T01:47:26.629Z,4.18
2023-01-10T01:49:58.532Z,3.08
2023-01-10T01:52:34.991Z,4.18
2023-01-10T01:55:10.545Z,4.50
2023-01-10T01:57:42.786Z,5.35
2023-01-10T02:00:14.918Z,6.28
2023-01-10T02:03:03.014Z,3.15
2023-01-10T02:05:40.635Z,4.80
2023-01-10T02:08:13.518Z,3.00
2023-01-10T02:11:09.231Z,5.47
2023-01-10T02:13:43.857Z,4.63
2023-01-10T02:16:15.761Z,3.97
2023-01-10T02:18:47.430Z,4.47
2023-01-10T02:22:02.788Z,4.28
2023-01-10T02:24:40.161Z,3.67
2023-01-10T02:27:11.866Z,4.57
2023-01-10T02:30:02.224Z,3.42
2023-01-10T02:33:04.643Z,3.85
2023-01-10T02:36:08.924Z,3.75
2023-01-10T02:39:11.009Z,4.45
2023-01-10T02:41:53.202Z,2.90
2023-01-10T02:44:48.292Z,3.95
2023-01-10T02:47:20.259Z,4.32
2023-01-10T02:49:52.477Z,3.90
2023-01-10T02:52:30.465Z,5.20
2023-01-10T02:55:03.909Z,5.32
2023-01-10T02:58:04.956Z,3.90
2023-01-10T03:01:02.497Z,4.53
2023-01-10T03:04:03.671Z,4.93
2023-01-10T03:07:14.146Z,4.75
2023-01-10T03:10:06.809Z,4.55
2023-01-10T03:13:02.592Z,2.88
2023-01-10T03:15:37.575Z,4.70
2023-01-10T03:18:17.102Z,3.35
2023-01-10T03:20:51.734Z,4.75
2023-01-10T03:23:25.571Z,3.17
2023-01-10T03:25:57.801Z,2.97
2023-01-10T03:28:32.014Z,3.75
2023-01-10T03:31:10.882Z,3.55
2023-01-10T03:33:42.967Z,4.80
2023-01-10T03:36:50.114Z,3.70
2023-01-10T03:39:43.205Z,5.28
2023-01-10T03:42:23.310Z,4.28
2023-01-10T03:45:13.534Z,3.03
2023-01-10T03:47:48.609Z,3.13
2023-01-10T03:50:23.791Z,3.95
2023-01-10T03:52:56.843Z,3.63
2023-01-10T03:55:30.669Z,4.47
2023-01-10T03:58:03.780Z,3.55
2023-01-10T04:00:36.001Z,3.67
2023-01-10T04:03:09.799Z,4.20
2023-01-10T04:05:41.800Z,4.32
2023-01-10T04:08:13.542Z,4.35
2023-01-10T04:10:45.205Z,4.05
2023-01-10T04:13:17.083Z,5.60
2023-01-10T04:15:48.851Z,4.05
2023-01-10T04:18:20.565Z,4.72
2023-01-10T04:20:52.407Z,2.97
2023-01-10T04:23:24.066Z,4.10
2023-01-10T04:25:55.743Z,4.97
2023-01-10T04:28:27.503Z,5.03
2023-01-10T04:30:59.303Z,3.97
2023-01-10T04:33:30.970Z,3.70
2023-01-10T04:36:02.634Z,4.82
2023-01-10T04:38:34.477Z,5.18
2023-01-10T04:41:06.212Z,4.78
2023-01-10T04:43:37.900Z,4.32
2023-01-10T04:46:09.733Z,5.65
2023-01-10T04:48:41.725Z,6.47
2023-01-10T04:51:13.634Z,4.28
2023-01-10T04:53:45.374Z,3.47
2023-01-10T04:56:19.712Z,3.92
2023-01-10T04:58:54.086Z,4.57
2023-01-10T05:01:26.662Z,5.60
2023-01-10T05:03:58.481Z,3.35
2023-01-10T05:06:30.160Z,3.78
2023-01-10T05:09:01.874Z,4.25
2023-01-10T05:11:33.820Z,4.15
2023-01-10T05:14:05.641Z,6.03
2023-01-10T05:16:37.405Z,4.18
2023-01-10T05:19:09.469Z,4.00
2023-01-10T05:21:41.267Z,4.55
2023-01-10T05:24:13.150Z,6.93
2023-01-10T05:26:44.849Z,4.95
2023-01-10T05:29:16.535Z,4.32
2023-01-10T05:31:51.300Z,5.10
2023-01-10T05:36:54.621Z,4.35
2023-01-10T05:39:29.118Z,3.60
2023-01-10T05:42:00.925Z,4.57
2023-01-10T05:44:32.625Z,5.95
2023-01-10T05:47:04.533Z,6.55
2023-01-10T05:49:36.240Z,4.40
2023-01-10T05:52:08.049Z,8.40
2023-01-10T05:54:40.987Z,6.50
2023-01-10T05:57:12.707Z,6.90
2023-01-10T05:59:44.456Z,4.13
2023-01-10T06:02:16.274Z,4.10
2023-01-10T06:04:48.003Z,4.78
2023-01-10T06:07:19.818Z,5.68
2023-01-10T06:09:51.545Z,4.30
2023-01-10T06:12:23.298Z,4.50
2023-01-10T06:14:55.025Z,4.45
2023-01-10T06:17:27.057Z,4.22
2023-01-10T06:19:58.777Z,8.02
2023-01-10T06:22:30.506Z,6.47
2023-01-10T06:25:03.348Z,4.75
2023-01-10T06:27:35.053Z,4.20
2023-01-10T06:30:07.720Z,4.00
2023-01-10T06:32:40.509Z,4.72
2023-01-10T06:35:12.214Z,5.45
2023-01-10T06:37:44.670Z,5.72
2023-01-10T06:40:16.705Z,7.50
2023-01-10T06:42:48.485Z,6.72
2023-01-10T06:45:20.390Z,8.23
2023-01-10T06:47:52.107Z,6.53
2023-01-10T06:50:24.376Z,4.75
2023-01-10T06:53:04.835Z,5.78
2023-01-10T06:55:36.521Z,5.22
2023-01-10T06:58:08.704Z,5.50
2023-01-10T07:00:41.666Z,4.38
2023-01-10T07:03:13.328Z,4.82
2023-01-10T07:05:45.032Z,6.97
2023-01-10T07:08:16.800Z,5.20
2023-01-10T07:10:51.421Z,4.47
2023-01-10T07:13:23.083Z,5.07
2023-01-10T07:16:05.472Z,4.90
2023-01-10T07:18:39.163Z,5.72
2023-01-10T07:21:11.437Z,5.68
2023-01-10T07:23:46.115Z,6.35
2023-01-10T07:26:19.154Z,4.10
2023-01-10T07:28:51.504Z,6.00
2023-01-10T07:31:24.421Z,4.97
2023-01-10T07:33:56.228Z,6.00
2023-01-10T07:36:27.913Z,5.90
2023-01-10T07:38:59.702Z,5.32
2023-01-10T07:41:31.419Z,4.90
2023-01-10T07:44:03.940Z,7.15
2023-01-10T07:46:37.790Z,5.85
2023-01-10T07:49:10.044Z,6.93
2023-01-10T07:51:42.153Z,8.85
2023-01-10T07:54:14.930Z,5.80
2023-01-10T07:56:50.488Z,5.55
2023-01-10T07:59:22.195Z,7.97
2023-01-10T08:01:56.783Z,4.38
2023-01-10T08:04:28.517Z,4.53
2023-01-10T08:07:00.252Z,6.25
2023-01-10T08:09:31.957Z,8.40
2023-01-10T08:12:03.809Z,9.27
2023-01-10T08:14:35.520Z,6.05
2023-01-10T08:17:07.276Z,8.20
2023-01-10T08:19:40.959Z,7.05
2023-01-10T08:22:12.772Z,7.18
2023-01-10T08:24:44.618Z,5.57
2023-01-10T08:27:16.350Z,5.55
2023-01-10T08:29:48.045Z,6.45
2023-01-10T08:32:19.768Z,5.60
2023-01-10T08:34:51.597Z,5.57
2023-01-10T08:37:23.421Z,9.50
2023-01-10T08:39:55.142Z,6.53
2023-01-10T08:42:26.899Z,7.13
2023-01-10T08:45:00.548Z,5.35
2023-01-10T08:47:32.384Z,8.90
2023-01-10T08:50:05.351Z,9.07
2023-01-10T08:52:38.199Z,8.18
2023-01-10T08:55:13.647Z,5.72
2023-01-10T08:57:45.454Z,5.47
2023-01-10T09:00:17.610Z,6.40
2023-01-10T09:02:52.542Z,4.93
2023-01-10T09:05:27.776Z,4.80
2023-01-10T09:08:02.113Z,6.75
2023-01-10T09:10:33.913Z,4.53
2023-01-10T09:13:05.918Z,4.38
2023-01-10T09:15:40.951Z,5.10
2023-01-10T09:18:14.603Z,5.57
2023-01-10T09:20:46.746Z,5.72
2023-01-10T09:23:20.750Z,4.95
2023-01-10T09:25:54.564Z,14.45
2023-01-10T09:28:26.684Z,49.57
2023-01-10T09:30:58.822Z,8.93
2023-01-10T09:33:45.300Z,4.05
2023-01-10T09:36:18.243Z,4.72
2023-01-10T09:38:49.941Z,3.63
2023-01-10T09:41:44.078Z,5.32
2023-01-10T09:44:39.702Z,3.55
2023-01-10T09:47:22.870Z,4.53
2023-01-10T09:50:23.606Z,4.88
2023-01-10T09:53:12.525Z,2.65
2023-01-10T09:55:50.238Z,5.13
2023-01-10T09:58:29.576Z,5.05
2023-01-10T10:01:15.558Z,3.17
2023-01-10T10:04:15.259Z,4.65
2023-01-10T10:06:50.176Z,2.75
2023-01-10T10:09:43.105Z,4.70
2023-01-10T10:12:32.947Z,3.90
2023-01-10T10:15:07.399Z,4.07
2023-01-10T10:18:01.685Z,3.28
2023-01-10T10:20:45.099Z,3.80
2023-01-10T10:23:44.555Z,5.22
2023-01-10T10:26:46.312Z,4.68
2023-01-10T10:29:34.200Z,5.40
2023-01-10T10:32:15.002Z,2.80
2023-01-10T10:35:07.421Z,3.55
2023-01-10T10:37:48.169Z,6.28
2023-01-10T10:40:23.113Z,3.78
2023-01-10T10:42:57.283Z,3.92
2023-01-10T10:45:52.523Z,3.97
2023-01-10T10:48:25.812Z,5.30
2023-01-10T10:51:09.723Z,3.33
2023-01-10T10:53:41.500Z,3.42
2023-01-10T10:56:17.842Z,3.92
2023-01-10T10:58:53.858Z,3.20
2023-01-10T11:01:26.894Z,4.43
2023-01-10T11:04:02.325Z,2.85
2023-01-10T11:06:38.500Z,3.60
2023-01-10T11:09:10.293Z,3.47
2023-01-10T11:11:47.096Z,3.57
2023-01-10T11:17:28.981Z,6.22
2023-01-10T11:20:04.311Z,4.28
2023-01-10T11:22:48.260Z,4.10
2023-01-10T11:25:23.004Z,3.15
2023-01-10T11:30:32.344Z,4.03
2023-01-10T11:33:17.476Z,3.88
2023-01-10T11:38:35.348Z,2.95
2023-01-10T11:41:25.253Z,4.50
2023-01-10T11:44:17.188Z,2.75
2023-01-10T11:46:50.166Z,4.43
2023-01-10T11:49:33.078Z,3.38
2023-01-10T11:52:14.428Z,2.83
2023-01-10T11:54:46.808Z,4.18
2023-01-10T11:57:26.543Z,2.67
2023-01-10T12:00:08.788Z,3.85
2023-01-10T12:02:47.344Z,3.33
2023-01-10T12:05:23.703Z,5.05
2023-01-10T12:07:56.195Z,3.90
2023-01-10T12:10:29.229Z,3.45
2023-01-10T12:13:14.565Z,3.28
2023-01-10T12:15:47.040Z,5.72
2023-01-10T12:18:19.588Z,3.83
2023-01-10T12:20:52.829Z,2.75
2023-01-10T12:23:25.572Z,3.72
2023-01-10T12:26:11.018Z,2.70
2023-01-10T12:28:54.147Z,4.38
2023-01-10T12:31:26.771Z,4.00
2023-01-10T12:34:15.478Z,5.53
2023-01-10T12:36:58.577Z,4.03
2023-01-10T12:39:36.964Z,3.70
2023-01-10T12:42:30.050Z,8.13
2023-01-10T12:45:16.768Z,1.73
2023-01-10T12:48:00.828Z,5.65
2023-01-10T12:50:39.269Z,4.50
2023-01-10T12:53:38.519Z,5.50
2023-01-10T12:56:14.869Z,5.50
2023-01-10T12:59:11.022Z,2.95
2023-01-10T13:01:44.806Z,3.90
2023-01-10T13:04:22.528Z,6.30
2023-01-10T13:06:55.124Z,4.13
2023-01-10T13:09:30.405Z,8.48
2023-01-10T13:12:17.409Z,7.30
2023-01-10T13:15:21.594Z,3.35
2023-01-10T13:18:18.027Z,3.97
2023-01-10T13:20:49.960Z,3.38
2023-01-10T13:23:29.965Z,5.38
2023-01-10T13:26:09.573Z,5.10
2023-01-10T13:29:00.373Z,3.95
2023-01-10T13:31:33.926Z,4.93
2023-01-10T13:34:11.057Z,4.35
2023-01-10T13:36:50.169Z,4.07
2023-01-10T13:39:23.843Z,8.57
2023-01-10T13:42:17.058Z,4.82
2023-01-10T13:45:01.168Z,5.43
2023-01-10T13:47:46.926Z,4.00
2023-01-10T13:50:24.468Z,6.35
2023-01-10T13:53:02.475Z,5.68
2023-01-10T13:55:40.202Z,4.03
2023-01-10T13:58:15.536Z,7.18
2023-01-10T14:01:14.347Z,5.40
2023-01-10T14:03:58.485Z,3.53
2023-01-10T14:06:30.242Z,5.70
2023-01-10T14:09:12.268Z,4.85
2023-01-10T14:11:46.662Z,4.20
2023-01-10T14:14:27.389Z,4.30
2023-01-10T14:17:19.316Z,5.38
2023-01-10T14:20:13.743Z,4.93
2023-01-10T14:22:58.861Z,3.97
2023-01-10T14:28:05.509Z,4.28
2023-01-10T14:30:39.417Z,6.30
2023-01-10T14:33:22.181Z,5.28
2023-01-10T14:35:58.654Z,3.67
2023-01-10T14:38:34.245Z,4.15
2023-01-10T14:41:13.624Z,3.05
2023-01-10T14:43:55.116Z,2.45
2023-01-10T14:46:38.915Z,4.30
2023-01-10T14:49:30.125Z,7.28
2023-01-10T14:52:19.646Z,3.58
2023-01-10T14:55:03.001Z,6.80
2023-01-10T14:57:34.711Z,3.00
2023-01-10T15:00:09.364Z,5.18
2023-01-10T15:02:45.805Z,4.45
2023-01-10T15:05:19.424Z,2.30
2023-01-10T15:07:51.168Z,5.78
2023-01-10T15:10:30.522Z,3.40
2023-01-10T15:13:05.491Z,8.57
2023-01-10T15:15:39.583Z,4.60
2023-01-10T15:18:40.268Z,3.42
2023-01-10T15:21:14.481Z,4.63
2023-01-10T15:23:47.015Z,4.78
2023-01-10T15:26:27.536Z,5.03
2023-01-10T15:29:19.402Z,5.82
2023-01-10T15:31:53.511Z,6.28
2023-01-10T15:34:29.799Z,4.97
2023-01-10T15:37:02.855Z,4.88
2023-01-10T15:39:39.235Z,6.07
2023-01-10T15:42:12.545Z,6.63
2023-01-10T15:44:52.459Z,7.07
2023-01-10T15:47:41.879Z,4.88
2023-01-10T15:50:27.369Z,6.50
2023-01-10T15:53:05.343Z,8.07
2023-01-10T15:55:46.299Z,8.00
2023-01-10T15:58:35.867Z,7.47
2023-01-10T16:01:07.693Z,9.50
2023-01-10T16:03:45.873Z,9.18
2023-01-10T16:06:25.725Z,9.50
2023-01-10T16:09:04.075Z,12.10
2023-01-10T16:12:06.345Z,13.07
2023-01-10T16:14:38.211Z,7.75
2023-01-10T16:17:12.286Z,7.90
2023-01-10T16:19:43.978Z,7.35
2023-01-10T16:22:19.138Z,9.07
2023-01-10T16:24:52.498Z,6.38
2023-01-10T16:27:30.727Z,8.38
2023-01-10T16:30:02.574Z,6.10
2023-01-10T16:32:34.487Z,10.05
2023-01-10T16:35:06.771Z,6.97
2023-01-10T16:37:41.556Z,9.07
2023-01-10T16:43:25.633Z,11.57
2023-01-10T16:46:04.491Z,7.55
2023-01-10T16:48:36.204Z,8.40
2023-01-10T16:51:18.292Z,9.82
2023-01-10T16:53:50.643Z,7.95
2023-01-10T16:56:32.283Z,9.60
2023-01-10T16:59:06.209Z,8.25
2023-01-10T17:01:42.070Z,8.60
2023-01-10T17:04:22.604Z,7.45
2023-01-10T17:06:54.374Z,7.70
2023-01-10T17:09:28.803Z,7.90
2023-01-10T17:12:05.818Z,8.15
2023-01-10T17:14:38.844Z,8.95
2023-01-10T17:17:11.999Z,10.02
2023-01-10T17:19:47.717Z,12.07
2023-01-10T17:22:19.395Z,6.75
2023-01-10T17:24:51.331Z,11.07
2023-01-10T17:27:23.362Z,8.93
2023-01-10T17:29:55.155Z,8.65
2023-01-10T17:32:26.846Z,7.75
2023-01-10T17:34:58.677Z,9.68
2023-01-10T17:37:30.472Z,7.97
2023-01-10T17:40:05.700Z,8.85
2023-01-10T17:42:37.456Z,15.52
2023-01-10T17:45:11.873Z,5.77
2023-01-10T17:47:43.518Z,7.25
2023-01-10T17:50:19.400Z,10.63
2023-01-10T17:52:53.163Z,12.30
2023-01-10T17:55:29.653Z,8.10
2023-01-10T17:58:02.854Z,7.50
2023-01-10T18:00:36.844Z,8.10
2023-01-10T18:03:09.405Z,11.77
2023-01-10T18:05:51.650Z,7.03
2023-01-10T18:08:24.150Z,9.82
2023-01-10T18:11:00.542Z,10.02
2023-01-10T18:13:32.257Z,12.15
2023-01-10T18:16:04.388Z,12.52
2023-01-10T18:18:36.193Z,10.20
2023-01-10T18:21:14.232Z,10.45
2023-01-10T18:23:46.949Z,10.35
2023-01-10T18:26:21.414Z,9.68
2023-01-10T18:28:54.181Z,12.63
2023-01-10T18:31:26.180Z,11.23
2023-01-10T18:33:58.023Z,13.50
2023-01-10T18:36:30.231Z,14.20
2023-01-10T18:39:03.675Z,14.48
2023-01-10T18:41:37.767Z,15.52
2023-01-10T18:44:11.601Z,12.25
2023-01-10T18:46:43.572Z,12.63
2023-01-10T18:49:17.413Z,10.15
2023-01-10T18:51:49.392Z,12.17
2023-01-10T18:54:21.384Z,12.75
2023-01-10T18:57:25.682Z,11.77
2023-01-10T18:59:58.477Z,13.65
2023-01-10T19:02:30.617Z,13.07
2023-01-10T19:05:09.733Z,13.00
2023-01-10T19:07:41.662Z,11.60
2023-01-10T19:10:14.773Z,16.00
2023-01-10T19:12:46.629Z,13.38
2023-01-10T19:15:18.424Z,15.93
2023-01-10T19:17:57.327Z,10.65
2023-01-10T19:20:30.231Z,13.38
2023-01-10T19:23:02.130Z,11.77
2023-01-10T19:25:35.291Z,16.60
2023-01-10T19:31:13.828Z,16.65
2023-01-10T19:33:50.649Z,11.18
2023-01-10T19:36:29.595Z,12.80
2023-01-10T19:39:01.751Z,11.18
2023-01-10T19:41:35.799Z,11.70
2023-01-10T19:44:15.982Z,13.63
2023-01-10T19:46:49.133Z,14.68
2023-01-10T19:49:21.069Z,14.48
2023-01-10T19:51:53.687Z,19.13
2023-01-10T19:54:31.084Z,13.75
2023-01-10T19:57:03.613Z,14.50
2023-01-10T19:59:38.635Z,10.40
2023-01-10T20:02:13.728Z,14.00
2023-01-10T20:04:46.112Z,12.90
2023-01-10T20:07:18.779Z,12.63
2023-01-10T20:09:52.810Z,14.13
2023-01-10T20:12:25.354Z,10.15
2023-01-10T20:14:57.163Z,14.35
2023-01-10T20:17:30.064Z,16.58
2023-01-10T20:20:02.151Z,14.80
2023-01-10T20:22:34.941Z,15.32
2023-01-10T20:25:07.345Z,12.25
2023-01-10T20:27:39.078Z,14.02
2023-01-10T20:30:14.188Z,13.05
2023-01-10T20:32:45.935Z,13.82
2023-01-10T20:35:22.113Z,14.20
2023-01-10T20:37:53.786Z,16.27
2023-01-10T20:40:27.775Z,13.50
2023-01-10T20:42:59.464Z,13.93
2023-01-10T20:45:36.561Z,14.05
2023-01-10T20:48:08.671Z,16.40
2023-01-10T20:50:46.269Z,12.52
2023-01-10T20:53:18.632Z,12.05
2023-01-10T20:55:59.372Z,13.93
2023-01-10T20:58:33.025Z,17.48
2023-01-10T21:01:05.171Z,15.57
2023-01-10T21:03:41.374Z,16.42
2023-01-10T21:06:15.009Z,10.90
2023-01-10T21:08:49.246Z,21.02
2023-01-10T21:11:21.430Z,16.08
2023-01-10T21:13:53.146Z,15.05
2023-01-10T21:16:25.625Z,19.42
2023-01-10T21:19:01.378Z,16.45
2023-01-10T21:21:33.094Z,17.05
2023-01-10T21:24:04.960Z,17.73
2023-01-10T21:26:36.775Z,15.98
2023-01-10T21:29:08.478Z,17.60
2023-01-10T21:31:40.239Z,15.38
2023-01-10T21:34:12.086Z,19.70
2023-01-10T21:36:47.903Z,19.70
2023-01-10T21:39:20.787Z,18.10
2023-01-10T21:42:11.040Z,16.08
2023-01-10T21:44:42.723Z,16.85
2023-01-10T21:47:14.433Z,18.10
2023-01-10T21:49:46.143Z,16.58
2023-01-10T21:52:18.061Z,19.38
2023-01-10T21:54:49.780Z,19.45
2023-01-10T21:57:23.283Z,19.13
2023-01-10T21:59:55.000Z,14.38
2023-01-10T22:02:32.595Z,17.40
2023-01-10T22:05:04.586Z,17.45
2023-01-10T22:07:36.462Z,16.30
2023-01-10T22:10:09.000Z,19.38
2023-01-10T22:12:42.868Z,17.63
2023-01-10T22:15:14.638Z,16.90
2023-01-10T22:17:48.214Z,18.25
2023-01-10T22:20:19.915Z,14.88
2023-01-10T22:22:51.694Z,13.73
2023-01-10T22:25:24.496Z,13.85
2023-01-10T22:27:56.345Z,16.58
2023-01-10T22:30:28.154Z,14.73
2023-01-10T22:33:02.712Z,14.27
2023-01-10T22:35:36.359Z,14.80
2023-01-10T22:38:08.026Z,14.77
2023-01-10T22:40:39.707Z,11.75
2023-01-10T22:43:12.057Z,14.05
2023-01-10T22:45:43.869Z,15.48
2023-01-10T22:48:20.693Z,18.00
2023-01-10T22:50:52.372Z,15.82
2023-01-10T22:53:24.106Z,17.75
2023-01-10T22:55:55.849Z,12.23
2023-01-10T22:58:27.752Z,16.58
2023-01-10T23:00:59.466Z,17.08
2023-01-10T23:03:31.164Z,14.45
2023-01-10T23:06:02.883Z,13.75
2023-01-10T23:08:34.946Z,14.95
2023-01-10T23:11:08.264Z,24.95
2023-01-10T23:13:39.927Z,16.90
2023-01-10T23:16:15.339Z,18.85
2023-01-10T23:18:50.164Z,15.45
2023-01-10T23:23:55.011Z,14.68
2023-01-10T23:26:26.755Z,15.23
2023-01-10T23:28:58.461Z,15.73
2023-01-10T23:31:31.896Z,15.80
2023-01-10T23:34:04.275Z,13.20
2023-01-10T23:36:35.998Z,15.75
2023-01-10T23:39:08.439Z,14.68
2023-01-10T23:41:40.112Z,16.15
2023-01-10T23:44:14.591Z,14.80
2023-01-10T23:46:46.499Z,13.57
2023-01-10T23:49:18.139Z,14.10
2023-01-10T23:51:49.861Z,13.73
2023-01-10T23:54:21.520Z,17.75
2023-01-10T23:56:53.681Z,16.88
2023-01-10T23:59:26.030Z,15.25
